sensor_id;sensor_type;location;lat;lon;timestamp;P1;durP1;ratioP1;P2;durP2;ratioP2
62880;SDS011;48969;49.934;8.596;2022-10-22T00:01:51;6.47;;;4.40;;
62880;SDS011;48969;49.934;8.596;2022-10-22T00:04:16;6.07;;;3.65;;
62880;SDS011;48969;49.934;8.596;2022-10-22T00:06:41;5.37;;;3.50;;
62880;SDS011;48969;49.934;8.596;2022-10-22T00:09:08;6.88;;;3.95;;
62880;SDS011;48969;49.934;8.596;2022-10-22T00:11:34;5.95;;;3.60;;
62880;SDS011;48969;49.934;8.596;2022-10-22T00:13:59;9.10;;;4.10;;
62880;SDS011;48969;49.934;8.596;2022-10-22T00:16:24;8.57;;;4.97;;
62880;SDS011;48969;49.934;8.596;2022-10-22T00:18:49;5.63;;;3.60;;
62880;SDS011;48969;49.934;8.596;2022-10-22T00:21:15;5.77;;;3.73;;
62880;SDS011;48969;49.934;8.596;2022-10-22T00:23:40;8.70;;;4.30;;
62880;SDS011;48969;49.934;8.596;2022-10-22T00:26:06;7.15;;;3.65;;
62880;SDS011;48969;49.934;8.596;2022-10-22T00:28:31;6.57;;;3.80;;
62880;SDS011;48969;49.934;8.596;2022-10-22T00:30:57;5.90;;;3.50;;
62880;SDS011;48969;49.934;8.596;2022-10-22T00:33:23;6.72;;;3.53;;
62880;SDS011;48969;49.934;8.596;2022-10-22T00:35:48;7.88;;;3.60;;
62880;SDS011;48969;49.934;8.596;2022-10-22T00:38:14;6.90;;;3.77;;
62880;SDS011;48969;49.934;8.596;2022-10-22T00:40:39;7.22;;;4.07;;
62880;SDS011;48969;49.934;8.596;2022-10-22T00:43:04;6.53;;;4.00;;
62880;SDS011;48969;49.934;8.596;2022-10-22T00:45:29;7.97;;;3.90;;
62880;SDS011;48969;49.934;8.596;2022-10-22T00:52:50;10.38;;;4.07;;
62880;SDS011;48969;49.934;8.596;2022-10-22T00:55:16;6.43;;;3.75;;
62880;SDS011;48969;49.934;8.596;2022-10-22T00:57:42;4.78;;;3.60;;
62880;SDS011;48969;49.934;8.596;2022-10-22T01:00:07;5.72;;;3.33;;
62880;SDS011;48969;49.934;8.596;2022-10-22T01:02:33;6.93;;;3.92;;
62880;SDS011;48969;49.934;8.596;2022-10-22T01:04:58;6.37;;;3.50;;
62880;SDS011;48969;49.934;8.596;2022-10-22T01:07:23;5.43;;;3.27;;
62880;SDS011;48969;49.934;8.596;2022-10-22T01:09:59;9.75;;;4.20;;
62880;SDS011;48969;49.934;8.596;2022-10-22T01:12:43;6.10;;;3.50;;
62880;SDS011;48969;49.934;8.596;2022-10-22T01:18:08;7.10;;;3.55;;
62880;SDS011;48969;49.934;8.596;2022-10-22T01:28:00;5.22;;;3.22;;
62880;SDS011;48969;49.934;8.596;2022-10-22T01:30:30;5.72;;;3.00;;
62880;SDS011;48969;49.934;8.596;2022-10-22T01:32:56;6.82;;;2.85;;
62880;SDS011;48969;49.934;8.596;2022-10-22T01:35:25;5.05;;;2.80;;
62880;SDS011;48969;49.934;8.596;2022-10-22T01:37:58;4.68;;;2.50;;
62880;SDS011;48969;49.934;8.596;2022-10-22T01:40:25;5.78;;;2.60;;
62880;SDS011;48969;49.934;8.596;2022-10-22T01:42:55;6.45;;;2.72;;
62880;SDS011;48969;49.934;8.596;2022-10-22T01:45:21;5.88;;;2.80;;
62880;SDS011;48969;49.934;8.596;2022-10-22T01:47:58;4.85;;;2.60;;
62880;SDS011;48969;49.934;8.596;2022-10-22T01:50:50;3.92;;;2.30;;
62880;SDS011;48969;49.934;8.596;2022-10-22T01:58:57;4.05;;;2.50;;
62880;SDS011;48969;49.934;8.596;2022-10-22T02:01:39;4.93;;;2.30;;
62880;SDS011;48969;49.934;8.596;2022-10-22T02:04:16;4.70;;;2.38;;
62880;SDS011;48969;49.934;8.596;2022-10-22T02:06:43;5.38;;;2.40;;
62880;SDS011;48969;49.934;8.596;2022-10-22T02:09:10;4.18;;;2.00;;
62880;SDS011;48969;49.934;8.596;2022-10-22T02:11:37;3.38;;;2.00;;
62880;SDS011;48969;49.934;8.596;2022-10-22T02:14:02;4.82;;;2.55;;
62880;SDS011;48969;49.934;8.596;2022-10-22T02:16:36;4.03;;;2.08;;
62880;SDS011;48969;49.934;8.596;2022-10-22T02:19:06;4.22;;;2.10;;
62880;SDS011;48969;49.934;8.596;2022-10-22T02:21:34;5.28;;;2.58;;
62880;SDS011;48969;49.934;8.596;2022-10-22T02:23:59;4.10;;;1.97;;
62880;SDS011;48969;49.934;8.596;2022-10-22T02:26:34;4.63;;;2.13;;
62880;SDS011;48969;49.934;8.596;2022-10-22T02:29:17;4.68;;;2.10;;
62880;SDS011;48969;49.934;8.596;2022-10-22T02:31:43;4.18;;;2.13;;
62880;SDS011;48969;49.934;8.596;2022-10-22T02:34:10;5.30;;;2.10;;
62880;SDS011;48969;49.934;8.596;2022-10-22T02:36:38;4.15;;;1.80;;
62880;SDS011;48969;49.934;8.596;2022-10-22T02:39:04;9.80;;;2.47;;
62880;SDS011;48969;49.934;8.596;2022-10-22T02:41:30;3.35;;;1.77;;
62880;SDS011;48969;49.934;8.596;2022-10-22T02:43:56;5.90;;;1.70;;
62880;SDS011;48969;49.934;8.596;2022-10-22T02:46:21;3.08;;;1.80;;
62880;SDS011;48969;49.934;8.596;2022-10-22T02:48:47;3.65;;;1.90;;
62880;SDS011;48969;49.934;8.596;2022-10-22T02:51:12;2.90;;;1.88;;
62880;SDS011;48969;49.934;8.596;2022-10-22T02:53:37;4.00;;;1.80;;
62880;SDS011;48969;49.934;8.596;2022-10-22T02:56:02;2.60;;;1.50;;
62880;SDS011;48969;49.934;8.596;2022-10-22T02:58:28;3.08;;;1.60;;
62880;SDS011;48969;49.934;8.596;2022-10-22T03:00:53;4.35;;;1.58;;
62880;SDS011;48969;49.934;8.596;2022-10-22T03:03:18;2.33;;;1.40;;
62880;SDS011;48969;49.934;8.596;2022-10-22T03:05:43;3.83;;;1.43;;
62880;SDS011;48969;49.934;8.596;2022-10-22T03:08:08;3.20;;;1.50;;
62880;SDS011;48969;49.934;8.596;2022-10-22T03:10:33;4.47;;;2.00;;
62880;SDS011;48969;49.934;8.596;2022-10-22T03:12:59;3.60;;;1.60;;
62880;SDS011;48969;49.934;8.596;2022-10-22T03:15:24;3.85;;;1.80;;
62880;SDS011;48969;49.934;8.596;2022-10-22T03:17:49;3.90;;;1.60;;
62880;SDS011;48969;49.934;8.596;2022-10-22T03:20:14;1.75;;;1.60;;
62880;SDS011;48969;49.934;8.596;2022-10-22T03:22:39;3.00;;;1.60;;
62880;SDS011;48969;49.934;8.596;2022-10-22T03:25:07;2.47;;;1.70;;
62880;SDS011;48969;49.934;8.596;2022-10-22T03:27:33;2.47;;;1.42;;
62880;SDS011;48969;49.934;8.596;2022-10-22T03:29:59;2.63;;;1.55;;
62880;SDS011;48969;49.934;8.596;2022-10-22T03:32:24;2.47;;;1.40;;
62880;SDS011;48969;49.934;8.596;2022-10-22T03:34:49;2.40;;;1.57;;
62880;SDS011;48969;49.934;8.596;2022-10-22T03:37:14;2.40;;;1.60;;
62880;SDS011;48969;49.934;8.596;2022-10-22T03:39:39;3.92;;;2.03;;
62880;SDS011;48969;49.934;8.596;2022-10-22T03:42:05;2.92;;;1.58;;
62880;SDS011;48969;49.934;8.596;2022-10-22T03:44:31;2.45;;;1.40;;
62880;SDS011;48969;49.934;8.596;2022-10-22T03:46:56;3.00;;;1.55;;
62880;SDS011;48969;49.934;8.596;2022-10-22T03:49:21;2.25;;;1.73;;
62880;SDS011;48969;49.934;8.596;2022-10-22T03:51:46;2.90;;;1.87;;
62880;SDS011;48969;49.934;8.596;2022-10-22T03:54:12;3.97;;;1.67;;
62880;SDS011;48969;49.934;8.596;2022-10-22T03:56:37;3.55;;;2.05;;
62880;SDS011;48969;49.934;8.596;2022-10-22T03:59:02;4.32;;;1.60;;
62880;SDS011;48969;49.934;8.596;2022-10-22T04:01:28;4.00;;;2.28;;
62880;SDS011;48969;49.934;8.596;2022-10-22T04:03:53;3.97;;;1.85;;
62880;SDS011;48969;49.934;8.596;2022-10-22T04:06:18;3.22;;;1.50;;
62880;SDS011;48969;49.934;8.596;2022-10-22T04:08:44;4.67;;;1.80;;
62880;SDS011;48969;49.934;8.596;2022-10-22T04:11:09;4.90;;;1.70;;
62880;SDS011;48969;49.934;8.596;2022-10-22T04:13:35;3.08;;;2.03;;
62880;SDS011;48969;49.934;8.596;2022-10-22T04:18:35;2.72;;;2.03;;
62880;SDS011;48969;49.934;8.596;2022-10-22T04:21:00;5.35;;;2.20;;
62880;SDS011;48969;49.934;8.596;2022-10-22T04:23:25;3.40;;;2.10;;
62880;SDS011;48969;49.934;8.596;2022-10-22T04:25:56;2.97;;;1.80;;
62880;SDS011;48969;49.934;8.596;2022-10-22T04:28:21;3.85;;;1.83;;
62880;SDS011;48969;49.934;8.596;2022-10-22T04:30:46;3.03;;;1.98;;
62880;SDS011;48969;49.934;8.596;2022-10-22T04:33:11;3.35;;;1.65;;
62880;SDS011;48969;49.934;8.596;2022-10-22T04:35:37;3.78;;;1.95;;
62880;SDS011;48969;49.934;8.596;2022-10-22T04:38:02;2.95;;;1.80;;
62880;SDS011;48969;49.934;8.596;2022-10-22T04:40:27;3.95;;;1.88;;
62880;SDS011;48969;49.934;8.596;2022-10-22T04:42:52;2.63;;;1.70;;
62880;SDS011;48969;49.934;8.596;2022-10-22T04:45:18;2.33;;;1.63;;
62880;SDS011;48969;49.934;8.596;2022-10-22T04:47:43;3.17;;;1.85;;
62880;SDS011;48969;49.934;8.596;2022-10-22T04:50:08;2.53;;;1.67;;
62880;SDS011;48969;49.934;8.596;2022-10-22T04:52:33;3.28;;;1.80;;
62880;SDS011;48969;49.934;8.596;2022-10-22T04:54:58;3.53;;;1.90;;
62880;SDS011;48969;49.934;8.596;2022-10-22T04:57:23;2.60;;;1.77;;
62880;SDS011;48969;49.934;8.596;2022-10-22T04:59:53;2.75;;;1.98;;
62880;SDS011;48969;49.934;8.596;2022-10-22T05:02:18;3.10;;;1.77;;
62880;SDS011;48969;49.934;8.596;2022-10-22T05:04:43;4.70;;;2.53;;
62880;SDS011;48969;49.934;8.596;2022-10-22T05:07:08;3.17;;;2.20;;
62880;SDS011;48969;49.934;8.596;2022-10-22T05:09:33;1.90;;;1.70;;
62880;SDS011;48969;49.934;8.596;2022-10-22T05:11:58;3.45;;;2.00;;
62880;SDS011;48969;49.934;8.596;2022-10-22T05:14:24;2.33;;;1.83;;
62880;SDS011;48969;49.934;8.596;2022-10-22T05:16:50;6.18;;;2.20;;
62880;SDS011;48969;49.934;8.596;2022-10-22T05:19:18;2.90;;;1.90;;
62880;SDS011;48969;49.934;8.596;2022-10-22T05:21:43;2.90;;;1.90;;
62880;SDS011;48969;49.934;8.596;2022-10-22T05:24:08;3.47;;;1.83;;
62880;SDS011;48969;49.934;8.596;2022-10-22T05:26:34;4.73;;;2.10;;
62880;SDS011;48969;49.934;8.596;2022-10-22T05:28:59;2.67;;;1.95;;
62880;SDS011;48969;49.934;8.596;2022-10-22T05:31:24;2.23;;;1.80;;
62880;SDS011;48969;49.934;8.596;2022-10-22T05:33:50;3.83;;;1.83;;
62880;SDS011;48969;49.934;8.596;2022-10-22T05:36:19;3.55;;;2.08;;
62880;SDS011;48969;49.934;8.596;2022-10-22T05:38:44;3.50;;;1.90;;
62880;SDS011;48969;49.934;8.596;2022-10-22T05:41:11;3.17;;;2.22;;
62880;SDS011;48969;49.934;8.596;2022-10-22T05:43:36;3.35;;;1.88;;
62880;SDS011;48969;49.934;8.596;2022-10-22T05:46:02;4.80;;;1.60;;
62880;SDS011;48969;49.934;8.596;2022-10-22T05:48:28;6.32;;;2.10;;
62880;SDS011;48969;49.934;8.596;2022-10-22T05:50:53;3.60;;;1.70;;
62880;SDS011;48969;49.934;8.596;2022-10-22T05:53:18;2.95;;;1.80;;
62880;SDS011;48969;49.934;8.596;2022-10-22T05:55:44;1.92;;;1.80;;
62880;SDS011;48969;49.934;8.596;2022-10-22T05:58:09;2.45;;;1.75;;
62880;SDS011;48969;49.934;8.596;2022-10-22T06:00:34;4.05;;;1.75;;
62880;SDS011;48969;49.934;8.596;2022-10-22T06:03:00;2.17;;;1.70;;
62880;SDS011;48969;49.934;8.596;2022-10-22T06:05:25;3.58;;;1.88;;
62880;SDS011;48969;49.934;8.596;2022-10-22T06:07:50;3.75;;;1.70;;
62880;SDS011;48969;49.934;8.596;2022-10-22T06:10:16;2.95;;;1.67;;
62880;SDS011;48969;49.934;8.596;2022-10-22T06:12:42;3.15;;;1.60;;
62880;SDS011;48969;49.934;8.596;2022-10-22T06:15:08;4.72;;;1.75;;
62880;SDS011;48969;49.934;8.596;2022-10-22T06:17:33;2.80;;;1.83;;
62880;SDS011;48969;49.934;8.596;2022-10-22T06:19:58;2.67;;;1.60;;
62880;SDS011;48969;49.934;8.596;2022-10-22T06:22:24;1.63;;;1.40;;
62880;SDS011;48969;49.934;8.596;2022-10-22T06:24:49;2.17;;;1.60;;
62880;SDS011;48969;49.934;8.596;2022-10-22T06:27:14;3.38;;;1.50;;
62880;SDS011;48969;49.934;8.596;2022-10-22T06:29:39;4.03;;;1.58;;
62880;SDS011;48969;49.934;8.596;2022-10-22T06:32:04;3.10;;;1.42;;
62880;SDS011;48969;49.934;8.596;2022-10-22T06:34:29;1.55;;;1.45;;
62880;SDS011;48969;49.934;8.596;2022-10-22T06:36:55;2.00;;;1.57;;
62880;SDS011;48969;49.934;8.596;2022-10-22T06:39:20;2.75;;;1.58;;
62880;SDS011;48969;49.934;8.596;2022-10-22T06:41:45;3.78;;;1.85;;
62880;SDS011;48969;49.934;8.596;2022-10-22T06:44:12;3.50;;;1.52;;
62880;SDS011;48969;49.934;8.596;2022-10-22T06:46:37;2.25;;;1.35;;
62880;SDS011;48969;49.934;8.596;2022-10-22T06:49:03;3.17;;;1.30;;
62880;SDS011;48969;49.934;8.596;2022-10-22T06:51:29;2.08;;;1.45;;
62880;SDS011;48969;49.934;8.596;2022-10-22T06:53:55;3.00;;;1.67;;
62880;SDS011;48969;49.934;8.596;2022-10-22T06:56:21;3.85;;;1.50;;
62880;SDS011;48969;49.934;8.596;2022-10-22T06:58:50;2.88;;;1.52;;
62880;SDS011;48969;49.934;8.596;2022-10-22T07:01:15;2.42;;;1.50;;
62880;SDS011;48969;49.934;8.596;2022-10-22T07:03:41;3.88;;;1.40;;
62880;SDS011;48969;49.934;8.596;2022-10-22T07:06:11;4.43;;;1.60;;
62880;SDS011;48969;49.934;8.596;2022-10-22T07:08:37;2.95;;;1.33;;
62880;SDS011;48969;49.934;8.596;2022-10-22T07:11:16;4.32;;;1.40;;
62880;SDS011;48969;49.934;8.596;2022-10-22T07:13:41;2.00;;;1.30;;
62880;SDS011;48969;49.934;8.596;2022-10-22T07:16:07;3.22;;;1.42;;
62880;SDS011;48969;49.934;8.596;2022-10-22T07:18:32;4.45;;;1.30;;
62880;SDS011;48969;49.934;8.596;2022-10-22T07:20:58;4.35;;;1.35;;
62880;SDS011;48969;49.934;8.596;2022-10-22T07:23:23;2.90;;;1.20;;
62880;SDS011;48969;49.934;8.596;2022-10-22T07:25:49;2.95;;;1.40;;
62880;SDS011;48969;49.934;8.596;2022-10-22T07:28:14;2.55;;;1.13;;
62880;SDS011;48969;49.934;8.596;2022-10-22T07:30:39;2.30;;;1.10;;
62880;SDS011;48969;49.934;8.596;2022-10-22T07:33:05;2.47;;;1.20;;
62880;SDS011;48969;49.934;8.596;2022-10-22T07:35:30;2.30;;;1.20;;
62880;SDS011;48969;49.934;8.596;2022-10-22T07:37:56;2.25;;;0.90;;
62880;SDS011;48969;49.934;8.596;2022-10-22T07:40:21;1.33;;;0.80;;
62880;SDS011;48969;49.934;8.596;2022-10-22T07:42:46;1.57;;;0.93;;
62880;SDS011;48969;49.934;8.596;2022-10-22T07:45:11;2.27;;;1.13;;
62880;SDS011;48969;49.934;8.596;2022-10-22T07:47:36;2.80;;;1.20;;
62880;SDS011;48969;49.934;8.596;2022-10-22T07:50:02;1.77;;;1.13;;
62880;SDS011;48969;49.934;8.596;2022-10-22T07:52:28;2.65;;;1.10;;
62880;SDS011;48969;49.934;8.596;2022-10-22T07:54:53;2.95;;;1.10;;
62880;SDS011;48969;49.934;8.596;2022-10-22T07:57:18;3.17;;;1.30;;
62880;SDS011;48969;49.934;8.596;2022-10-22T07:59:43;3.37;;;1.07;;
62880;SDS011;48969;49.934;8.596;2022-10-22T08:02:10;2.20;;;0.93;;
62880;SDS011;48969;49.934;8.596;2022-10-22T08:04:35;2.80;;;1.13;;
62880;SDS011;48969;49.934;8.596;2022-10-22T08:07:00;2.25;;;1.05;;
62880;SDS011;48969;49.934;8.596;2022-10-22T08:09:25;2.57;;;1.07;;
62880;SDS011;48969;49.934;8.596;2022-10-22T08:11:50;2.67;;;0.90;;
62880;SDS011;48969;49.934;8.596;2022-10-22T08:14:15;2.37;;;1.10;;
62880;SDS011;48969;49.934;8.596;2022-10-22T08:16:41;2.47;;;1.15;;
62880;SDS011;48969;49.934;8.596;2022-10-22T08:19:06;2.10;;;0.90;;
62880;SDS011;48969;49.934;8.596;2022-10-22T08:21:31;1.80;;;0.90;;
62880;SDS011;48969;49.934;8.596;2022-10-22T08:23:56;2.43;;;1.13;;
62880;SDS011;48969;49.934;8.596;2022-10-22T08:26:21;1.70;;;0.90;;
62880;SDS011;48969;49.934;8.596;2022-10-22T08:28:47;5.00;;;0.93;;
62880;SDS011;48969;49.934;8.596;2022-10-22T08:31:12;2.43;;;0.90;;
62880;SDS011;48969;49.934;8.596;2022-10-22T08:33:37;0.80;;;0.80;;
62880;SDS011;48969;49.934;8.596;2022-10-22T08:36:03;2.22;;;0.70;;
62880;SDS011;48969;49.934;8.596;2022-10-22T08:38:28;2.40;;;0.73;;
62880;SDS011;48969;49.934;8.596;2022-10-22T08:40:56;1.77;;;0.80;;
62880;SDS011;48969;49.934;8.596;2022-10-22T08:46:09;2.53;;;0.80;;
62880;SDS011;48969;49.934;8.596;2022-10-22T08:48:49;2.40;;;1.02;;
62880;SDS011;48969;49.934;8.596;2022-10-22T08:51:20;2.03;;;0.90;;
62880;SDS011;48969;49.934;8.596;2022-10-22T08:53:49;1.42;;;0.73;;
62880;SDS011;48969;49.934;8.596;2022-10-22T08:56:15;2.35;;;1.02;;
62880;SDS011;48969;49.934;8.596;2022-10-22T08:58:49;2.08;;;0.85;;
62880;SDS011;48969;49.934;8.596;2022-10-22T09:04:03;1.13;;;0.80;;
62880;SDS011;48969;49.934;8.596;2022-10-22T09:06:31;1.33;;;0.95;;
62880;SDS011;48969;49.934;8.596;2022-10-22T09:08:57;1.35;;;0.93;;
62880;SDS011;48969;49.934;8.596;2022-10-22T09:13:52;2.05;;;0.93;;
62880;SDS011;48969;49.934;8.596;2022-10-22T09:24:05;2.22;;;1.10;;
62880;SDS011;48969;49.934;8.596;2022-10-22T09:26:35;2.70;;;1.17;;
62880;SDS011;48969;49.934;8.596;2022-10-22T09:29:01;2.42;;;1.23;;
62880;SDS011;48969;49.934;8.596;2022-10-22T09:31:27;2.17;;;1.25;;
62880;SDS011;48969;49.934;8.596;2022-10-22T09:33:54;3.90;;;1.30;;
62880;SDS011;48969;49.934;8.596;2022-10-22T09:36:20;2.85;;;1.33;;
62880;SDS011;48969;49.934;8.596;2022-10-22T09:38:47;2.88;;;1.30;;
62880;SDS011;48969;49.934;8.596;2022-10-22T09:41:13;3.97;;;1.23;;
62880;SDS011;48969;49.934;8.596;2022-10-22T09:43:38;4.88;;;1.40;;
62880;SDS011;48969;49.934;8.596;2022-10-22T09:46:05;1.63;;;1.20;;
62880;SDS011;48969;49.934;8.596;2022-10-22T09:48:35;3.03;;;1.08;;
62880;SDS011;48969;49.934;8.596;2022-10-22T09:53:46;2.42;;;1.13;;
62880;SDS011;48969;49.934;8.596;2022-10-22T09:56:20;2.38;;;1.00;;
62880;SDS011;48969;49.934;8.596;2022-10-22T09:58:48;2.08;;;1.20;;
62880;SDS011;48969;49.934;8.596;2022-10-22T10:01:17;1.77;;;1.08;;
62880;SDS011;48969;49.934;8.596;2022-10-22T10:03:43;2.88;;;1.30;;
62880;SDS011;48969;49.934;8.596;2022-10-22T10:06:08;1.52;;;1.33;;
62880;SDS011;48969;49.934;8.596;2022-10-22T10:08:33;1.75;;;1.13;;
62880;SDS011;48969;49.934;8.596;2022-10-22T10:10:59;3.73;;;1.30;;
62880;SDS011;48969;49.934;8.596;2022-10-22T10:13:35;2.17;;;1.25;;
62880;SDS011;48969;49.934;8.596;2022-10-22T10:16:11;4.00;;;1.17;;
62880;SDS011;48969;49.934;8.596;2022-10-22T10:18:50;3.50;;;1.23;;
62880;SDS011;48969;49.934;8.596;2022-10-22T10:23:53;2.28;;;1.00;;
62880;SDS011;48969;49.934;8.596;2022-10-22T10:34:30;1.73;;;1.15;;
62880;SDS011;48969;49.934;8.596;2022-10-22T10:42:18;1.83;;;1.10;;
62880;SDS011;48969;49.934;8.596;2022-10-22T10:47:44;3.00;;;1.15;;
62880;SDS011;48969;49.934;8.596;2022-10-22T10:53:26;3.53;;;1.20;;
62880;SDS011;48969;49.934;8.596;2022-10-22T10:55:33;2.47;;;1.10;;
62880;SDS011;48969;49.934;8.596;2022-10-22T11:00:25;3.63;;;1.30;;
62880;SDS011;48969;49.934;8.596;2022-10-22T11:02:58;3.13;;;1.10;;
62880;SDS011;48969;49.934;8.596;2022-10-22T11:07:54;4.47;;;1.30;;
62880;SDS011;48969;49.934;8.596;2022-10-22T11:13:20;2.70;;;1.23;;
62880;SDS011;48969;49.934;8.596;2022-10-22T11:15:47;3.58;;;1.30;;
62880;SDS011;48969;49.934;8.596;2022-10-22T11:18:19;2.50;;;1.20;;
62880;SDS011;48969;49.934;8.596;2022-10-22T11:20:48;4.13;;;1.50;;
62880;SDS011;48969;49.934;8.596;2022-10-22T11:23:21;3.67;;;1.20;;
62880;SDS011;48969;49.934;8.596;2022-10-22T11:25:48;3.85;;;1.60;;
62880;SDS011;48969;49.934;8.596;2022-10-22T11:30:39;4.20;;;1.30;;
62880;SDS011;48969;49.934;8.596;2022-10-22T11:33:06;4.28;;;1.35;;
62880;SDS011;48969;49.934;8.596;2022-10-22T11:35:34;2.63;;;1.40;;
62880;SDS011;48969;49.934;8.596;2022-10-22T11:38:02;2.13;;;1.05;;
62880;SDS011;48969;49.934;8.596;2022-10-22T11:42:58;3.95;;;1.50;;
62880;SDS011;48969;49.934;8.596;2022-10-22T11:45:28;5.47;;;1.40;;
62880;SDS011;48969;49.934;8.596;2022-10-22T11:47:58;2.08;;;1.30;;
62880;SDS011;48969;49.934;8.596;2022-10-22T11:50:24;4.80;;;1.38;;
62880;SDS011;48969;49.934;8.596;2022-10-22T11:52:54;3.45;;;1.15;;
62880;SDS011;48969;49.934;8.596;2022-10-22T11:55:28;4.72;;;1.30;;
62880;SDS011;48969;49.934;8.596;2022-10-22T11:57:55;3.90;;;1.50;;
62880;SDS011;48969;49.934;8.596;2022-10-22T12:00:36;3.95;;;1.30;;
62880;SDS011;48969;49.934;8.596;2022-10-22T12:03:14;3.78;;;1.20;;
62880;SDS011;48969;49.934;8.596;2022-10-22T12:05:40;3.15;;;1.20;;
62880;SDS011;48969;49.934;8.596;2022-10-22T12:08:22;3.00;;;1.42;;
62880;SDS011;48969;49.934;8.596;2022-10-22T12:10:56;3.05;;;1.13;;
62880;SDS011;48969;49.934;8.596;2022-10-22T12:13:24;2.97;;;1.23;;
62880;SDS011;48969;49.934;8.596;2022-10-22T12:15:51;2.90;;;1.30;;
62880;SDS011;48969;49.934;8.596;2022-10-22T12:18:17;3.50;;;1.10;;
62880;SDS011;48969;49.934;8.596;2022-10-22T12:20:50;3.00;;;1.20;;
62880;SDS011;48969;49.934;8.596;2022-10-22T12:23:15;3.65;;;1.33;;
62880;SDS011;48969;49.934;8.596;2022-10-22T12:25:40;3.90;;;1.40;;
62880;SDS011;48969;49.934;8.596;2022-10-22T12:28:08;3.47;;;1.42;;
62880;SDS011;48969;49.934;8.596;2022-10-22T12:30:34;6.90;;;1.30;;
62880;SDS011;48969;49.934;8.596;2022-10-22T12:33:01;3.75;;;1.50;;
62880;SDS011;48969;49.934;8.596;2022-10-22T12:35:31;4.25;;;1.20;;
62880;SDS011;48969;49.934;8.596;2022-10-22T12:37:57;4.20;;;1.48;;
62880;SDS011;48969;49.934;8.596;2022-10-22T12:40:25;4.55;;;1.50;;
62880;SDS011;48969;49.934;8.596;2022-10-22T12:42:52;3.28;;;1.33;;
62880;SDS011;48969;49.934;8.596;2022-10-22T12:45:18;3.70;;;1.40;;
62880;SDS011;48969;49.934;8.596;2022-10-22T12:47:46;3.75;;;1.30;;
62880;SDS011;48969;49.934;8.596;2022-10-22T12:50:16;4.18;;;1.20;;
62880;SDS011;48969;49.934;8.596;2022-10-22T12:52:42;3.78;;;1.20;;
62880;SDS011;48969;49.934;8.596;2022-10-22T12:55:07;3.15;;;1.10;;
62880;SDS011;48969;49.934;8.596;2022-10-22T12:57:34;4.15;;;1.30;;
62880;SDS011;48969;49.934;8.596;2022-10-22T12:59:59;6.60;;;1.53;;
62880;SDS011;48969;49.934;8.596;2022-10-22T13:02:25;6.30;;;1.10;;
62880;SDS011;48969;49.934;8.596;2022-10-22T13:07:40;3.65;;;1.10;;
62880;SDS011;48969;49.934;8.596;2022-10-22T13:10:19;4.60;;;1.42;;
62880;SDS011;48969;49.934;8.596;2022-10-22T13:12:49;4.85;;;1.20;;
62880;SDS011;48969;49.934;8.596;2022-10-22T13:15:19;3.58;;;1.33;;
62880;SDS011;48969;49.934;8.596;2022-10-22T13:17:45;4.40;;;1.38;;
62880;SDS011;48969;49.934;8.596;2022-10-22T13:20:21;4.65;;;1.30;;
62880;SDS011;48969;49.934;8.596;2022-10-22T13:22:53;4.95;;;1.15;;
62880;SDS011;48969;49.934;8.596;2022-10-22T13:27:51;5.13;;;1.50;;
62880;SDS011;48969;49.934;8.596;2022-10-22T13:30:19;4.18;;;1.30;;
62880;SDS011;48969;49.934;8.596;2022-10-22T13:32:48;4.40;;;1.13;;
62880;SDS011;48969;49.934;8.596;2022-10-22T13:35:13;4.43;;;1.40;;
62880;SDS011;48969;49.934;8.596;2022-10-22T13:37:41;5.15;;;1.42;;
62880;SDS011;48969;49.934;8.596;2022-10-22T13:40:12;3.90;;;1.60;;
62880;SDS011;48969;49.934;8.596;2022-10-22T13:42:38;3.15;;;1.17;;
62880;SDS011;48969;49.934;8.596;2022-10-22T13:45:03;4.55;;;1.00;;
62880;SDS011;48969;49.934;8.596;2022-10-22T13:47:29;4.50;;;1.30;;
62880;SDS011;48969;49.934;8.596;2022-10-22T13:49:54;5.97;;;1.50;;
62880;SDS011;48969;49.934;8.596;2022-10-22T13:52:43;3.85;;;1.10;;
62880;SDS011;48969;49.934;8.596;2022-10-22T13:55:14;4.75;;;1.20;;
62880;SDS011;48969;49.934;8.596;2022-10-22T13:57:40;3.50;;;1.30;;
62880;SDS011;48969;49.934;8.596;2022-10-22T14:00:06;3.15;;;1.25;;
62880;SDS011;48969;49.934;8.596;2022-10-22T14:02:31;3.67;;;1.20;;
62880;SDS011;48969;49.934;8.596;2022-10-22T14:04:56;6.40;;;1.37;;
62880;SDS011;48969;49.934;8.596;2022-10-22T14:07:27;5.78;;;1.75;;
62880;SDS011;48969;49.934;8.596;2022-10-22T14:09:52;3.55;;;1.20;;
62880;SDS011;48969;49.934;8.596;2022-10-22T14:12:17;4.95;;;1.23;;
62880;SDS011;48969;49.934;8.596;2022-10-22T14:14:42;4.53;;;1.35;;
62880;SDS011;48969;49.934;8.596;2022-10-22T14:17:09;4.80;;;1.03;;
62880;SDS011;48969;49.934;8.596;2022-10-22T14:19:36;6.05;;;1.45;;
62880;SDS011;48969;49.934;8.596;2022-10-22T14:22:01;6.23;;;1.43;;
62880;SDS011;48969;49.934;8.596;2022-10-22T14:24:26;5.13;;;1.30;;
62880;SDS011;48969;49.934;8.596;2022-10-22T14:26:51;2.27;;;1.40;;
62880;SDS011;48969;49.934;8.596;2022-10-22T14:29:16;4.30;;;1.27;;
62880;SDS011;48969;49.934;8.596;2022-10-22T14:31:42;3.42;;;1.20;;
62880;SDS011;48969;49.934;8.596;2022-10-22T14:34:11;3.65;;;1.30;;
62880;SDS011;48969;49.934;8.596;2022-10-22T14:36:36;5.30;;;1.40;;
62880;SDS011;48969;49.934;8.596;2022-10-22T14:39:02;4.20;;;1.40;;
62880;SDS011;48969;49.934;8.596;2022-10-22T14:41:27;5.07;;;2.05;;
62880;SDS011;48969;49.934;8.596;2022-10-22T14:43:53;3.22;;;1.40;;
62880;SDS011;48969;49.934;8.596;2022-10-22T14:46:19;4.40;;;1.25;;
62880;SDS011;48969;49.934;8.596;2022-10-22T14:48:44;4.82;;;1.60;;
62880;SDS011;48969;49.934;8.596;2022-10-22T14:51:11;5.95;;;1.48;;
62880;SDS011;48969;49.934;8.596;2022-10-22T14:53:36;4.50;;;1.40;;
62880;SDS011;48969;49.934;8.596;2022-10-22T14:56:02;5.70;;;1.48;;
62880;SDS011;48969;49.934;8.596;2022-10-22T14:58:27;4.10;;;1.60;;
62880;SDS011;48969;49.934;8.596;2022-10-22T15:00:52;4.93;;;1.50;;
62880;SDS011;48969;49.934;8.596;2022-10-22T15:03:17;4.45;;;1.40;;
62880;SDS011;48969;49.934;8.596;2022-10-22T15:05:43;4.83;;;1.97;;
62880;SDS011;48969;49.934;8.596;2022-10-22T15:08:08;2.83;;;1.17;;
62880;SDS011;48969;49.934;8.596;2022-10-22T15:10:34;4.22;;;1.38;;
62880;SDS011;48969;49.934;8.596;2022-10-22T15:12:59;4.53;;;1.70;;
62880;SDS011;48969;49.934;8.596;2022-10-22T15:15:24;2.93;;;1.60;;
62880;SDS011;48969;49.934;8.596;2022-10-22T15:17:49;2.73;;;1.30;;
62880;SDS011;48969;49.934;8.596;2022-10-22T15:20:14;6.38;;;1.65;;
62880;SDS011;48969;49.934;8.596;2022-10-22T15:22:40;3.87;;;1.20;;
62880;SDS011;48969;49.934;8.596;2022-10-22T15:25:06;7.73;;;1.57;;
62880;SDS011;48969;49.934;8.596;2022-10-22T15:27:32;4.60;;;1.40;;
62880;SDS011;48969;49.934;8.596;2022-10-22T15:29:57;3.25;;;1.30;;
62880;SDS011;48969;49.934;8.596;2022-10-22T15:32:26;3.97;;;1.40;;
62880;SDS011;48969;49.934;8.596;2022-10-22T15:34:52;4.10;;;1.40;;
62880;SDS011;48969;49.934;8.596;2022-10-22T15:37:18;5.10;;;1.40;;
62880;SDS011;48969;49.934;8.596;2022-10-22T15:39:43;4.38;;;1.60;;
62880;SDS011;48969;49.934;8.596;2022-10-22T15:42:08;3.63;;;1.60;;
62880;SDS011;48969;49.934;8.596;2022-10-22T15:44:34;3.10;;;1.73;;
62880;SDS011;48969;49.934;8.596;2022-10-22T15:46:59;3.42;;;1.33;;
62880;SDS011;48969;49.934;8.596;2022-10-22T15:49:27;3.35;;;1.70;;
62880;SDS011;48969;49.934;8.596;2022-10-22T15:51:52;4.53;;;1.63;;
62880;SDS011;48969;49.934;8.596;2022-10-22T15:54:19;3.75;;;1.60;;
62880;SDS011;48969;49.934;8.596;2022-10-22T15:56:45;3.83;;;1.77;;
62880;SDS011;48969;49.934;8.596;2022-10-22T15:59:10;5.68;;;1.90;;
62880;SDS011;48969;49.934;8.596;2022-10-22T16:01:36;6.97;;;1.70;;
62880;SDS011;48969;49.934;8.596;2022-10-22T16:04:01;5.70;;;2.00;;
62880;SDS011;48969;49.934;8.596;2022-10-22T16:06:31;7.65;;;3.22;;
62880;SDS011;48969;49.934;8.596;2022-10-22T16:08:57;4.15;;;2.30;;